Time;durP1;ratioP1;P1;durP2;ratioP2;P2;SDS_P1;SDS_P2;PMS_P1;PMS_P2;Temp;Humidity;BMP_temperature;BMP_pressure;BME280_temperature;BME280_humidity;BME280_pressure;Samples;Min_cycle;Max_cycle;Signal;HPM_P1;HPM_P2
2021/09/20 00:01:36;;;;;;;0.10;0.10;;;;;;;12.43;62.55;98090.77;114114;1216;137717;-82
2021/09/20 00:04:02;;;;;;;0.10;0.10;;;;;;;12.41;62.52;98093.23;114288;1216;22451;-82
2021/09/20 00:06:28;;;;;;;0.10;0.10;;;;;;;12.39;62.61;98092.13;114165;1216;136829;-82
2021/09/20 00:08:53;;;;;;;0.10;0.10;;;;;;;12.37;62.49;98095.98;114142;1215;137203;-82
2021/09/20 00:11:19;;;;;;;0.10;0.10;;;;;;;12.33;62.37;98103.49;114165;1216;137398;-82
2021/09/20 00:13:45;;;;;;;0.10;0.10;;;;;;;12.32;62.60;98107.90;114179;1214;137201;-82
2021/09/20 00:16:11;;;;;;;0.10;0.10;;;;;;;12.30;62.73;98098.49;114129;1216;137245;-82
2021/09/20 00:18:37;;;;;;;0.10;0.10;;;;;;;12.29;62.88;98105.64;114208;1216;22476;-82
2021/09/20 00:21:03;;;;;;;0.10;0.10;;;;;;;12.27;62.83;98102.17;114191;1216;137399;-82
2021/09/20 00:23:28;;;;;;;0.10;0.10;;;;;;;12.26;62.83;98092.20;114123;1216;138566;-82
2021/09/20 00:25:57;;;;;;;0.00;0.00;;;;;;;12.29;62.97;98099.62;114091;1216;138313;-82
2021/09/20 00:28:22;;;;;;;0.10;0.10;;;;;;;12.33;63.02;98104.04;114152;1217;137592;-84
2021/09/20 00:30:48;;;;;;;0.10;0.10;;;;;;;12.38;63.04;98101.74;114251;1217;22452;-83
2021/09/20 00:33:13;;;;;;;0.00;0.00;;;;;;;12.41;63.07;98097.16;114169;1216;137058;-82
2021/09/20 00:35:39;;;;;;;0.10;0.10;;;;;;;12.46;63.03;98099.34;114162;1217;136055;-82
2021/09/20 00:38:04;;;;;;;0.10;0.10;;;;;;;12.49;62.78;98096.31;114124;1217;137215;-82
2021/09/20 00:40:30;;;;;;;0.10;0.10;;;;;;;12.51;62.71;98088.83;114159;1212;137312;-83
2021/09/20 00:42:56;;;;;;;0.10;0.10;;;;;;;12.53;62.54;98095.35;114252;1216;23296;-83
2021/09/20 00:45:22;;;;;;;0.10;0.10;;;;;;;12.52;62.55;98087.23;114091;1214;137024;-83
2021/09/20 00:47:48;;;;;;;0.10;0.10;;;;;;;12.52;62.57;98084.84;114102;1211;137214;-84
2021/09/20 00:50:13;;;;;;;0.10;0.10;;;;;;;12.51;62.53;98078.70;114111;1216;137235;-83
2021/09/20 00:52:39;;;;;;;0.00;0.00;;;;;;;12.48;62.36;98073.27;114118;1213;137649;-83
2021/09/20 00:55:06;;;;;;;0.10;0.10;;;;;;;12.46;62.69;98071.65;114182;1217;22476;-83
2021/09/20 00:57:33;;;;;;;0.00;0.00;;;;;;;12.42;62.67;98076.66;114155;1216;136926;-83
2021/09/20 01:00:00;;;;;;;0.10;0.10;;;;;;;12.38;62.50;98087.77;114067;1213;137111;-83
2021/09/20 01:02:26;;;;;;;0.10;0.10;;;;;;;12.35;62.52;98096.05;114051;1217;137451;-85
2021/09/20 01:04:52;;;;;;;0.10;0.10;;;;;;;12.28;62.84;98096.44;114158;1217;137328;-85
2021/09/20 01:07:18;;;;;;;0.10;0.10;;;;;;;12.23;62.72;98093.52;114150;1217;137269;-84
2021/09/20 01:09:45;;;;;;;0.10;0.10;;;;;;;12.19;62.79;98098.15;114289;1216;22458;-84
2021/09/20 01:12:12;;;;;;;0.10;0.10;;;;;;;12.16;63.37;98095.48;114139;1217;137361;-84
2021/09/20 01:14:38;;;;;;;0.10;0.10;;;;;;;12.15;63.55;98092.93;114159;1216;137915;-84
2021/09/20 01:17:05;;;;;;;0.10;0.10;;;;;;;12.18;64.02;98085.23;114108;1209;137486;-85
2021/09/20 01:19:31;;;;;;;0.10;0.10;;;;;;;12.19;63.97;98075.26;114121;1216;137677;-85
2021/09/20 01:22:04;;;;;;;0.00;0.00;;;;;;;12.23;64.10;98074.46;114250;1215;22471;-84
2021/09/20 01:24:31;;;;;;;0.10;0.10;;;;;;;12.26;63.86;98079.90;114096;1214;136922;-83
2021/09/20 01:27:03;;;;;;;0.10;0.10;;;;;;;12.26;64.03;98073.99;114093;1217;137074;-84
2021/09/20 01:29:29;;;;;;;;;;;;;;;12.25;63.98;98069.99;114239;1213;137256;-84
2021/09/20 01:31:58;;;;;;;0.10;0.10;;;;;;;12.24;63.97;98074.55;114190;1213;123540;-86
2021/09/20 01:34:24;;;;;;;0.00;0.00;;;;;;;12.25;63.83;98080.14;114228;1216;137599;-84
2021/09/20 01:36:52;;;;;;;0.10;0.10;;;;;;;12.25;63.69;98083.02;114234;1214;22458;-84
2021/09/20 01:39:20;;;;;;;0.10;0.10;;;;;;;12.24;63.79;98074.36;114145;1214;137304;-83
2021/09/20 01:41:46;;;;;;;0.00;0.00;;;;;;;12.23;63.77;98071.33;114101;1213;137002;-83
2021/09/20 01:44:12;;;;;;;0.00;0.00;;;;;;;12.22;63.94;98080.75;114112;1217;137055;-82
2021/09/20 01:46:42;;;;;;;0.10;0.10;;;;;;;12.21;64.15;98078.95;114117;1216;137332;-83
2021/09/20 01:49:08;;;;;;;0.10;0.10;;;;;;;12.20;63.95;98071.13;114108;1217;137184;-83
2021/09/20 01:51:33;;;;;;;0.10;0.10;;;;;;;12.18;63.91;98069.83;114257;1216;22456;-84
2021/09/20 01:53:59;;;;;;;0.00;0.00;;;;;;;12.15;63.93;98078.89;114145;1209;136962;-84
2021/09/20 01:56:25;;;;;;;0.00;0.00;;;;;;;12.14;64.22;98075.59;114104;1213;137640;-85
2021/09/20 01:58:50;;;;;;;0.00;0.00;;;;;;;12.17;64.34;98071.98;114145;1217;137937;-85
2021/09/20 02:01:15;;;;;;;0.10;0.10;;;;;;;12.20;64.61;98075.52;114201;1215;138067;-84
2021/09/20 02:03:41;;;;;;;0.10;0.10;;;;;;;12.24;64.76;98069.58;114261;1215;22486;-85
2021/09/20 02:06:06;;;;;;;0.10;0.10;;;;;;;12.26;64.63;98062.67;114119;1205;136930;-84
2021/09/20 02:08:32;;;;;;;0.10;0.10;;;;;;;12.28;64.73;98058.55;114126;1214;137366;-85
2021/09/20 02:10:58;;;;;;;0.10;0.10;;;;;;;12.29;64.58;98061.59;114153;1216;137306;-85
2021/09/20 02:13:24;;;;;;;0.10;0.10;;;;;;;12.29;64.46;98065.38;114218;1216;137193;-85
2021/09/20 02:15:49;;;;;;;0.10;0.10;;;;;;;12.26;64.54;98064.98;114204;1216;24068;-85
2021/09/20 02:18:15;;;;;;;0.10;0.10;;;;;;;12.24;64.51;98068.05;114157;1215;137054;-85
2021/09/20 02:20:41;;;;;;;0.10;0.10;;;;;;;12.22;64.34;98068.45;114138;1217;137219;-85
2021/09/20 02:23:07;;;;;;;0.10;0.10;;;;;;;12.18;64.42;98070.49;114155;1216;137302;-85
2021/09/20 02:25:32;;;;;;;0.00;0.00;;;;;;;12.13;64.54;98079.69;114114;1214;137581;-85
2021/09/20 02:27:58;;;;;;;0.10;0.10;;;;;;;12.07;64.50;98079.35;114209;1213;22474;-82
2021/09/20 02:30:24;;;;;;;0.00;0.00;;;;;;;12.03;64.73;98075.50;114162;1217;137003;-83
2021/09/20 02:32:49;;;;;;;0.00;0.00;;;;;;;12.00;64.76;98077.39;114221;1215;136971;-83
2021/09/20 02:35:15;;;;;;;0.00;0.00;;;;;;;11.97;64.97;98078.56;114148;1211;137473;-84
2021/09/20 02:37:41;;;;;;;0.10;0.10;;;;;;;11.97;64.96;98078.80;114253;1212;137562;-83
2021/09/20 02:40:08;;;;;;;0.10;0.10;;;;;;;12.00;65.22;98076.68;114247;1217;22534;-83
2021/09/20 02:42:34;;;;;;;0.00;0.00;;;;;;;12.06;65.31;98071.80;114295;1212;22553;-84
2021/09/20 02:45:00;;;;;;;0.10;0.10;;;;;;;12.09;65.33;98066.71;114151;1217;137324;-84
2021/09/20 02:47:26;;;;;;;0.10;0.10;;;;;;;12.12;65.42;98070.44;114194;1216;137178;-82
2021/09/20 02:49:51;;;;;;;0.10;0.10;;;;;;;12.14;65.27;98077.81;114135;1214;137485;-82
2021/09/20 02:52:17;;;;;;;0.00;0.00;;;;;;;12.14;65.31;98076.61;114131;1217;137307;-81
2021/09/20 02:54:42;;;;;;;0.10;0.10;;;;;;;12.15;65.34;98074.27;114207;1217;22458;-82
2021/09/20 02:57:08;;;;;;;0.10;0.10;;;;;;;12.15;65.20;98073.11;114122;1208;137387;-82
2021/09/20 02:59:33;;;;;;;0.10;0.10;;;;;;;12.14;65.27;98074.89;114148;1217;137142;-83
2021/09/20 03:01:59;;;;;;;0.10;0.10;;;;;;;12.13;65.39;98072.54;114154;1212;137040;-82
2021/09/20 03:04:24;;;;;;;0.10;0.10;;;;;;;12.11;65.29;98068.83;114114;1217;137338;-82
2021/09/20 03:06:50;;;;;;;0.10;0.10;;;;;;;12.06;65.27;98064.03;114227;1217;22460;-82
2021/09/20 03:09:15;;;;;;;0.00;0.00;;;;;;;12.02;65.44;98069.38;114103;1214;138009;-83
2021/09/20 03:11:41;;;;;;;0.00;0.00;;;;;;;11.99;65.62;98068.92;114097;1217;137110;-83
2021/09/20 03:14:06;;;;;;;0.10;0.10;;;;;;;11.94;65.48;98069.83;114060;1217;137145;-83
2021/09/20 03:16:32;;;;;;;0.00;0.00;;;;;;;11.93;65.61;98064.45;114133;1217;137881;-81
2021/09/20 03:18:57;;;;;;;0.10;0.10;;;;;;;11.93;65.88;98062.69;114163;1217;22460;-82
2021/09/20 03:21:24;;;;;;;0.10;0.10;;;;;;;11.96;66.05;98055.86;114120;1213;137644;-82
2021/09/20 03:23:53;;;;;;;0.10;0.10;;;;;;;11.99;66.12;98053.90;114138;1217;136948;-83
2021/09/20 03:26:19;;;;;;;0.10;0.10;;;;;;;12.01;65.98;98050.42;114093;1217;138222;-82
2021/09/20 03:28:45;;;;;;;0.10;0.10;;;;;;;12.03;65.94;98046.48;114073;1217;137378;-82
2021/09/20 03:31:10;;;;;;;0.10;0.10;;;;;;;12.03;65.41;98045.58;114097;1217;137314;-82
2021/09/20 03:33:36;;;;;;;0.10;0.10;;;;;;;12.01;65.31;98039.56;114197;1217;23573;-82
2021/09/20 03:36:01;;;;;;;0.10;0.10;;;;;;;12.01;64.90;98044.27;114110;1214;136898;-82
2021/09/20 03:38:27;;;;;;;0.00;0.00;;;;;;;12.00;64.82;98038.91;114068;1215;137200;-81
2021/09/20 03:40:52;;;;;;;0.10;0.10;;;;;;;11.99;64.50;98048.29;114204;1211;137280;-82
2021/09/20 03:43:18;;;;;;;0.10;0.10;;;;;;;11.97;64.60;98056.20;114157;1217;137338;-83
2021/09/20 03:45:43;;;;;;;0.10;0.10;;;;;;;11.94;64.66;98064.27;114249;1212;22470;-82
2021/09/20 03:48:09;;;;;;;0.10;0.10;;;;;;;11.93;64.69;98066.05;114170;1217;137000;-82
2021/09/20 03:50:34;;;;;;;0.10;0.10;;;;;;;11.92;64.67;98073.44;114153;1217;137223;-82
2021/09/20 03:53:00;;;;;;;0.10;0.10;;;;;;;11.89;64.69;98076.77;114092;1217;137297;-82
2021/09/20 03:55:26;;;;;;;0.10;0.10;;;;;;;11.86;64.90;98085.89;114218;1216;137671;-82
2021/09/20 03:57:51;;;;;;;0.10;0.10;;;;;;;11.82;65.04;98089.79;114299;1216;24293;-83
2021/09/20 04:00:17;;;;;;;0.10;0.10;;;;;;;11.82;65.23;98091.79;114186;1216;137314;-85
2021/09/20 04:02:43;;;;;;;0.10;0.10;;;;;;;11.84;65.38;98092.86;114187;1217;138020;-84
2021/09/20 04:05:11;;;;;;;0.10;0.10;;;;;;;11.87;65.40;98095.64;114166;1194;137831;-84
2021/09/20 04:07:41;;;;;;;0.10;0.10;;;;;;;11.91;65.73;98098.35;114127;1217;137568;-84
2021/09/20 04:10:08;;;;;;;0.10;0.10;;;;;;;11.97;65.53;98096.13;114263;1217;22457;-83
2021/09/20 04:12:33;;;;;;;0.10;0.10;;;;;;;12.01;65.41;98094.74;114318;1216;22443;-82
2021/09/20 04:15:00;;;;;;;0.10;0.10;;;;;;;12.02;65.17;98099.81;114152;1216;137567;-82
2021/09/20 04:17:25;;;;;;;0.10;0.10;;;;;;;12.02;65.04;98101.23;114192;1216;137724;-82
2021/09/20 04:19:51;;;;;;;0.10;0.10;;;;;;;12.02;65.01;98106.91;114133;1217;137334;-83
2021/09/20 04:22:16;;;;;;;0.00;0.00;;;;;;;12.01;65.15;98117.64;114128;1217;137264;-83
2021/09/20 04:24:42;;;;;;;0.10;0.10;;;;;;;12.00;64.83;98121.23;114274;1217;23005;-82
2021/09/20 04:27:07;;;;;;;0.10;0.10;;;;;;;11.98;64.62;98124.54;114163;1216;136783;-82
2021/09/20 04:29:33;;;;;;;0.10;0.10;;;;;;;11.96;64.61;98124.55;114191;1215;137127;-82
2021/09/20 04:31:58;;;;;;;0.10;0.10;;;;;;;11.94;64.73;98137.04;114197;1216;137274;-81
2021/09/20 04:34:24;;;;;;;0.10;0.10;;;;;;;11.92;64.55;98142.02;114165;1211;137496;-82
2021/09/20 04:36:50;;;;;;;0.10;0.10;;;;;;;11.89;64.77;98143.14;114261;1217;22492;-82
2021/09/20 04:39:16;;;;;;;0.10;0.10;;;;;;;11.86;64.47;98150.23;114165;1217;137090;-81
2021/09/20 04:41:41;;;;;;;0.10;0.10;;;;;;;11.83;64.51;98151.60;114158;1217;137379;-82
2021/09/20 04:44:07;;;;;;;0.10;0.10;;;;;;;11.82;64.79;98154.77;114160;1217;137617;-82
2021/09/20 04:46:33;;;;;;;0.10;0.10;;;;;;;11.80;64.79;98160.10;114151;1217;137345;-82
2021/09/20 04:48:58;;;;;;;0.00;0.00;;;;;;;11.82;64.91;98159.70;114285;1216;22615;-82
2021/09/20 04:51:24;;;;;;;0.20;0.20;;;;;;;11.85;65.03;98158.46;114189;1216;137458;-82
2021/09/20 04:53:49;;;;;;;0.10;0.10;;;;;;;11.89;65.20;98165.90;114243;1217;138839;-82
2021/09/20 04:56:16;;;;;;;0.10;0.10;;;;;;;11.93;65.15;98166.73;114162;1217;137494;-82
2021/09/20 04:58:42;;;;;;;0.10;0.10;;;;;;;11.97;65.18;98157.48;114177;1213;137388;-82
2021/09/20 05:01:08;;;;;;;0.10;0.10;;;;;;;12.01;65.01;98161.60;114349;1217;24402;-82
2021/09/20 05:03:33;;;;;;;0.10;0.10;;;;;;;12.04;64.84;98158.25;114291;1217;22428;-82
2021/09/20 05:05:58;;;;;;;0.10;0.10;;;;;;;12.07;64.69;98155.97;114143;1215;136861;-82
2021/09/20 05:08:24;;;;;;;0.10;0.10;;;;;;;12.11;64.56;98160.04;114190;1211;137050;-83
2021/09/20 05:10:49;;;;;;;0.10;0.10;;;;;;;12.12;64.37;98162.52;114209;1217;137233;-84
2021/09/20 05:13:15;;;;;;;0.10;0.10;;;;;;;12.12;64.35;98164.20;114060;1217;137249;-84
2021/09/20 05:15:41;;;;;;;0.10;0.10;;;;;;;12.12;64.16;98160.20;114330;1216;23147;-83
2021/09/20 05:18:06;;;;;;;0.10;0.10;;;;;;;12.14;64.30;98159.92;114049;1217;136803;-82
2021/09/20 05:20:32;;;;;;;0.10;0.10;;;;;;;12.14;64.43;98159.64;114140;1209;137058;-84
2021/09/20 05:22:58;;;;;;;0.10;0.10;;;;;;;12.15;64.21;98165.17;114015;1217;137242;-83
2021/09/20 05:25:24;;;;;;;0.10;0.10;;;;;;;12.17;64.55;98162.84;114045;1217;137290;-83
2021/09/20 05:27:51;;;;;;;0.10;0.10;;;;;;;12.18;64.26;98158.33;114221;1210;22462;-85
2021/09/20 05:30:18;;;;;;;0.10;0.10;;;;;;;12.18;64.25;98160.30;114121;1209;137648;-85
2021/09/20 05:32:43;;;;;;;0.10;0.10;;;;;;;12.18;64.14;98167.70;114183;1217;138188;-85
2021/09/20 05:35:12;;;;;;;0.10;0.10;;;;;;;12.19;63.93;98169.13;114142;1216;137385;-85
2021/09/20 05:37:38;;;;;;;0.10;0.10;;;;;;;12.22;64.22;98179.33;114174;1217;139354;-84
2021/09/20 05:40:10;;;;;;;0.10;0.10;;;;;;;12.27;64.48;98179.23;114201;1217;24082;-85
2021/09/20 05:42:38;;;;;;;0.10;0.10;;;;;;;12.35;64.40;98176.29;114139;1217;136843;-85
2021/09/20 05:45:07;;;;;;;0.10;0.10;;;;;;;12.43;64.35;98176.21;113966;1216;137103;-85
2021/09/20 05:47:37;;;;;;;0.20;0.20;;;;;;;12.51;64.15;98177.38;113946;1217;137156;-85
2021/09/20 05:50:09;;;;;;;0.20;0.20;;;;;;;12.56;63.94;98177.64;114052;1216;137086;-86
2021/09/20 05:53:00;;;;;;;0.10;0.10;;;;;;;12.61;63.86;98175.06;114098;1217;137227;-86
2021/09/20 05:55:35;;;;;;;0.10;0.10;;;;;;;12.67;63.66;98171.37;114051;1216;137155;-85
2021/09/20 05:58:25;;;;;;;0.10;0.10;;;;;;;12.72;63.50;98176.10;114219;1216;24199;-86
2021/09/20 06:01:20;;;;;;;0.10;0.10;;;;;;;12.77;63.10;98178.71;113989;1216;137205;-86
2021/09/20 06:03:47;;;;;;;0.10;0.10;;;;;;;12.82;63.14;98172.46;114054;1217;27449;-85
2021/09/20 06:06:23;;;;;;;0.10;0.10;;;;;;;12.86;62.97;98177.33;114094;1203;136805;-85
2021/09/20 06:08:56;;;;;;;0.10;0.10;;;;;;;12.90;62.75;98182.56;114015;1216;137947;-85
2021/09/20 06:11:22;;;;;;;0.10;0.10;;;;;;;12.92;62.56;98184.29;114211;1216;137306;-86
2021/09/20 06:13:48;;;;;;;0.10;0.10;;;;;;;12.94;62.22;98187.70;114166;1216;137551;-86
2021/09/20 06:16:16;;;;;;;0.20;0.20;;;;;;;12.95;62.02;98195.67;114199;1216;137448;-86
2021/09/20 06:18:43;;;;;;;0.10;0.10;;;;;;;12.96;61.84;98195.09;114303;1217;22480;-86
2021/09/20 06:21:09;;;;;;;0.10;0.10;;;;;;;12.96;61.84;98200.42;114183;1217;136843;-85
2021/09/20 06:23:54;;;;;;;0.10;0.10;;;;;;;12.97;61.80;98202.02;114168;1216;137141;-85
2021/09/20 06:26:21;;;;;;;0.20;0.20;;;;;;;12.96;61.85;98203.95;114208;1216;137176;-86
2021/09/20 06:28:50;;;;;;;0.10;0.10;;;;;;;12.96;61.98;98207.92;114186;1214;137202;-86
2021/09/20 06:31:18;;;;;;;0.10;0.10;;;;;;;12.98;61.95;98209.98;114255;1216;137414;-86
2021/09/20 06:33:46;;;;;;;0.10;0.10;;;;;;;12.97;62.16;98212.95;114292;1217;22479;-86
2021/09/20 06:36:12;;;;;;;0.10;0.10;;;;;;;12.98;62.10;98215.86;114344;1216;136886;-86
2021/09/20 06:38:39;;;;;;;0.20;0.20;;;;;;;12.99;62.13;98217.22;114232;1216;137162;-86
2021/09/20 06:41:05;;;;;;;0.20;0.20;;;;;;;13.03;62.12;98220.52;114171;1217;137623;-86
2021/09/20 06:43:31;;;;;;;0.10;0.10;;;;;;;13.09;62.25;98222.52;114167;1216;137877;-86
2021/09/20 06:45:58;;;;;;;0.10;0.10;;;;;;;13.16;62.47;98222.25;114328;1213;23244;-85
2021/09/20 06:48:24;;;;;;;0.10;0.10;;;;;;;13.25;62.33;98220.50;114155;1217;136988;-86
2021/09/20 06:50:49;;;;;;;0.10;0.10;;;;;;;13.33;61.92;98217.47;114178;1217;137233;-85
2021/09/20 06:53:15;;;;;;;0.10;0.10;;;;;;;13.41;61.68;98218.23;114144;1216;137020;-84
2021/09/20 06:56:02;;;;;;;0.10;0.10;;;;;;;13.48;61.48;98221.29;114120;1217;137277;-86
2021/09/20 06:58:29;;;;;;;0.10;0.10;;;;;;;13.58;61.34;98223.63;114234;1216;137198;-84
2021/09/20 07:00:56;;;;;;;0.10;0.10;;;;;;;13.68;61.02;98225.77;114330;1217;22604;-83
2021/09/20 07:03:22;;;;;;;0.30;0.10;;;;;;;13.80;60.96;98229.34;114062;1216;137665;-84
2021/09/20 07:05:48;;;;;;;0.30;0.30;;;;;;;13.91;60.59;98232.52;114256;1217;136989;-85
2021/09/20 07:08:13;;;;;;;0.10;0.10;;;;;;;13.97;60.33;98234.88;114168;1217;137212;-83
2021/09/20 07:10:39;;;;;;;0.10;0.10;;;;;;;14.00;60.10;98235.24;114170;1216;138100;-85
2021/09/20 07:13:09;;;;;;;0.20;0.20;;;;;;;14.00;59.99;98241.42;114298;1217;22489;-85
2021/09/20 07:15:42;;;;;;;0.20;0.20;;;;;;;13.98;60.01;98250.80;114198;1209;136923;-86
2021/09/20 07:18:08;;;;;;;0.10;0.10;;;;;;;13.98;60.00;98253.73;114193;1217;137476;-85
2021/09/20 07:20:35;;;;;;;0.10;0.10;;;;;;;13.99;60.00;98259.48;114137;1217;137371;-85
2021/09/20 07:23:01;;;;;;;0.20;0.20;;;;;;;14.01;59.95;98261.41;114174;1216;137623;-86
2021/09/20 07:25:26;;;;;;;0.10;0.10;;;;;;;14.03;59.76;98265.09;114153;1217;137287;-85
2021/09/20 07:28:00;;;;;;;0.10;0.10;;;;;;;14.03;59.89;98267.95;114271;1217;22471;-85
2021/09/20 07:30:25;;;;;;;0.10;0.10;;;;;;;14.00;59.86;98272.05;114211;1217;137100;-86
2021/09/20 07:32:51;;;;;;;0.10;0.10;;;;;;;13.99;59.91;98273.73;114174;1216;137269;-85
2021/09/20 07:35:20;;;;;;;0.20;0.20;;;;;;;14.00;60.14;98279.80;114099;1217;137718;-85
2021/09/20 07:37:53;;;;;;;0.10;0.10;;;;;;;14.00;59.78;98283.65;114245;1217;137189;-86
2021/09/20 07:40:25;;;;;;;0.10;0.10;;;;;;;13.97;59.66;98290.27;114210;1213;137496;-86
2021/09/20 07:42:53;;;;;;;0.10;0.10;;;;;;;13.94;59.70;98293.48;114393;1203;22483;-85
2021/09/20 07:45:19;;;;;;;0.20;0.20;;;;;;;13.93;59.83;98294.86;114207;1216;137023;-85
2021/09/20 07:47:45;;;;;;;0.10;0.10;;;;;;;13.95;59.86;98295.55;114226;1216;137225;-85
2021/09/20 07:50:13;;;;;;;0.20;0.20;;;;;;;13.97;59.82;98295.61;114156;1213;137318;-85
2021/09/20 07:53:02;;;;;;;0.10;0.10;;;;;;;13.98;59.78;98298.04;114189;1217;137300;-86
2021/09/20 07:55:35;;;;;;;0.10;0.10;;;;;;;13.99;59.88;98298.41;114201;1216;137317;-86
2021/09/20 07:58:08;;;;;;;0.10;0.10;;;;;;;14.02;59.90;98298.19;114329;1216;22470;-87
2021/09/20 08:00:37;;;;;;;0.20;0.20;;;;;;;14.05;59.90;98301.28;114212;1216;137186;-85
2021/09/20 08:03:06;;;;;;;0.10;0.10;;;;;;;14.07;59.85;98306.08;114108;1217;137117;-86
2021/09/20 08:05:34;;;;;;;0.20;0.20;;;;;;;14.09;59.67;98309.01;114189;1217;137503;-86
2021/09/20 08:08:02;;;;;;;0.20;0.20;;;;;;;14.10;59.47;98312.44;114189;1213;137299;-85
2021/09/20 08:10:28;;;;;;;0.20;0.20;;;;;;;14.10;59.48;98316.32;114190;1216;137504;-85
2021/09/20 08:12:53;;;;;;;0.10;0.10;;;;;;;14.10;59.53;98319.51;114331;1211;22438;-85
2021/09/20 08:15:20;;;;;;;0.10;0.10;;;;;;;14.10;59.40;98324.73;114181;1217;138225;-85
2021/09/20 08:17:46;;;;;;;0.20;0.20;;;;;;;14.07;59.43;98327.91;114213;1217;137376;-85
2021/09/20 08:20:13;;;;;;;0.20;0.20;;;;;;;14.04;59.43;98326.55;114167;1217;137767;-85
2021/09/20 08:22:39;;;;;;;0.10;0.10;;;;;;;13.98;59.58;98334.79;114230;1217;137367;-86
2021/09/20 08:25:06;;;;;;;0.10;0.10;;;;;;;13.92;59.75;98336.98;114342;1216;22489;-85
2021/09/20 08:27:31;;;;;;;0.10;0.10;;;;;;;13.88;59.99;98337.90;114214;1216;136993;-86
2021/09/20 08:29:57;;;;;;;0.10;0.10;;;;;;;13.85;60.02;98337.63;114185;1213;138182;-85
2021/09/20 08:32:22;;;;;;;0.10;0.10;;;;;;;13.82;60.42;98339.15;114188;1215;137360;-86
2021/09/20 08:35:09;;;;;;;0.10;0.10;;;;;;;13.85;60.67;98338.62;114184;1203;138465;-87
2021/09/20 08:37:44;;;;;;;0.10;0.10;;;;;;;13.90;60.81;98342.52;114247;1216;137851;-86
2021/09/20 08:40:38;;;;;;;0.10;0.10;;;;;;;13.94;60.79;98346.23;114302;1216;22917;-87
2021/09/20 08:43:06;;;;;;;0.20;0.20;;;;;;;13.97;60.74;98351.36;114227;1216;137114;-84
2021/09/20 08:45:32;;;;;;;0.10;0.10;;;;;;;13.99;60.34;98356.79;114349;1217;22466;-84
2021/09/20 08:47:59;;;;;;;0.30;0.30;;;;;;;14.00;60.44;98354.35;114229;1216;137331;-85
2021/09/20 08:51:08;;;;;;;0.10;0.10;;;;;;;14.02;60.53;98356.47;114125;1213;137134;-86
2021/09/20 08:53:47;;;;;;;0.10;0.10;;;;;;;14.03;60.54;98359.23;114235;1216;137170;-86
2021/09/20 08:56:13;;;;;;;0.20;0.20;;;;;;;14.04;60.42;98361.91;114227;1216;137021;-84
2021/09/20 09:02:29;;;;;;;0.10;0.10;;;;;;;14.02;60.31;98361.27;114282;1209;137672;-87
2021/09/20 09:05:55;;;;;;;0.20;0.20;;;;;;;14.00;60.57;98365.95;114368;1216;137305;-87
2021/09/20 09:09:21;;;;;;;0.10;0.10;;;;;;;14.02;60.77;98370.73;114324;1216;137844;-89
2021/09/20 09:12:47;;;;;;;0.10;0.10;;;;;;;14.03;60.73;98371.25;114302;1216;136987;-87
2021/09/20 09:16:14;;;;;;;0.10;0.10;;;;;;;13.98;60.26;98375.70;114289;1216;137323;-88
2021/09/20 09:19:40;;;;;;;0.20;0.20;;;;;;;13.95;60.63;98376.12;114341;1216;136857;-90
2021/09/20 09:23:08;;;;;;;0.10;0.10;;;;;;;13.89;60.39;98378.62;114274;1216;137360;-88
2021/09/20 09:26:40;;;;;;;0.10;0.10;;;;;;;13.87;60.39;98376.69;114293;1216;137286;-90
2021/09/20 09:30:09;;;;;;;0.10;0.10;;;;;;;13.89;60.33;98380.54;114315;1209;137364;-88
2021/09/20 09:33:44;;;;;;;0.20;0.20;;;;;;;13.91;60.31;98379.89;114346;1214;137038;-89
2021/09/20 09:37:10;;;;;;;0.10;0.10;;;;;;;13.95;60.52;98377.77;114335;1216;137218;-88
2021/09/20 09:40:45;;;;;;;0.20;0.20;;;;;;;14.03;60.12;98376.72;114375;1216;136918;-88
2021/09/20 09:44:14;;;;;;;0.20;0.20;;;;;;;14.15;59.85;98370.09;114368;1216;137480;-88
2021/09/20 09:47:43;;;;;;;0.10;0.10;;;;;;;14.25;59.71;98369.01;114406;1216;137287;-88
2021/09/20 09:51:08;;;;;;;0.20;0.20;;;;;;;14.39;59.45;98370.65;114420;1216;137162;-87
2021/09/20 09:54:35;;;;;;;0.20;0.20;;;;;;;14.52;59.39;98368.80;114500;1214;137253;-89
2021/09/20 09:58:00;;;;;;;0.20;0.20;;;;;;;14.65;59.13;98367.94;114349;1216;137550;-89
2021/09/20 10:01:32;;;;;;;0.10;0.10;;;;;;;14.76;58.81;98370.09;114382;1214;137080;-89
2021/09/20 10:04:57;;;;;;;0.20;0.20;;;;;;;14.88;58.46;98369.77;114410;1215;136806;-88
2021/09/20 10:08:30;;;;;;;0.10;0.10;;;;;;;15.00;58.53;98367.98;114384;1214;137121;-89
2021/09/20 10:11:35;;;;;;;;;;;;;;;15.14;58.34;98369.51;114331;1216;137265;-89
2021/09/20 10:15:02;;;;;;;0.20;0.20;;;;;;;15.27;58.31;98366.52;114322;1216;123636;-89
2021/09/20 10:18:29;;;;;;;0.20;0.20;;;;;;;15.41;58.00;98369.20;114310;1216;137182;-89
2021/09/20 10:21:53;;;;;;;0.20;0.20;;;;;;;15.59;57.70;98370.05;114384;1209;137393;-89
2021/09/20 10:25:04;;;;;;;0.20;0.20;;;;;;;15.67;57.04;98370.02;114428;1214;136111;-89
2021/09/20 10:28:30;;;;;;;0.20;0.20;;;;;;;15.69;56.85;98369.91;114239;1215;136945;-89
2021/09/20 10:31:55;;;;;;;0.10;0.10;;;;;;;15.78;56.68;98372.73;114423;1214;137311;-89
2021/09/20 10:35:02;;;;;;;0.10;0.10;;;;;;;15.85;56.43;98373.65;114329;1215;137468;-90
2021/09/20 10:38:34;;;;;;;0.20;0.20;;;;;;;15.90;56.21;98374.48;114418;1215;137249;-89
2021/09/20 10:42:03;;;;;;;0.20;0.20;;;;;;;16.01;55.97;98374.55;114398;1214;137522;-89
2021/09/20 10:45:29;;;;;;;0.20;0.20;;;;;;;16.19;55.58;98373.36;114493;1213;137040;-89
2021/09/20 10:49:04;;;;;;;0.20;0.20;;;;;;;16.39;55.52;98368.63;114406;1215;137212;-89
2021/09/20 10:52:38;;;;;;;0.10;0.10;;;;;;;16.61;55.15;98356.84;114275;1216;137157;-89
2021/09/20 10:56:23;;;;;;;0.30;0.30;;;;;;;16.75;54.38;98365.23;114475;1213;137445;-89
2021/09/20 10:59:49;;;;;;;0.10;0.10;;;;;;;16.88;54.06;98361.91;114089;1220;137068;-90
2021/09/20 11:03:14;;;;;;;0.20;0.20;;;;;;;16.99;53.35;98360.79;113982;1222;136397;-89
2021/09/20 11:06:55;;;;;;;0.20;0.20;;;;;;;17.09;53.06;98358.84;114000;1222;137097;-89
2021/09/20 11:10:34;;;;;;;0.20;0.20;;;;;;;17.24;52.38;98353.90;113928;1219;136998;-89
2021/09/20 11:14:11;;;;;;;0.10;0.10;;;;;;;17.39;51.75;98356.33;114292;1218;22471;-89
2021/09/20 11:17:22;;;;;;;0.20;0.20;;;;;;;17.53;51.35;98353.38;114155;1218;137607;-89
2021/09/20 11:20:57;;;;;;;0.20;0.20;;;;;;;17.62;50.40;98350.02;114149;1218;137421;-89
2021/09/20 11:24:23;;;;;;;0.30;0.30;;;;;;;17.76;49.91;98349.85;114184;1218;137727;-87
2021/09/20 11:28:04;;;;;;;0.20;0.20;;;;;;;17.96;49.99;98346.86;114168;1218;137126;-89
2021/09/20 11:31:31;;;;;;;0.20;0.20;;;;;;;18.09;49.09;98341.11;114187;1212;136865;-90
2021/09/20 11:34:52;;;;;;;0.20;0.20;;;;;;;18.26;48.17;98347.67;114259;1217;136776;-89
2021/09/20 11:38:16;;;;;;;0.30;0.30;;;;;;;18.41;47.36;98345.45;114296;1217;137576;-89
2021/09/20 11:41:44;;;;;;;0.20;0.20;;;;;;;18.61;46.69;98348.32;114256;1217;137802;-89
2021/09/20 11:45:16;;;;;;;0.20;0.20;;;;;;;18.92;45.85;98340.67;114279;1202;137158;-88
2021/09/20 11:48:42;;;;;;;0.20;0.20;;;;;;;19.21;44.83;98348.63;114272;1217;137006;-88
2021/09/20 11:52:09;;;;;;;0.30;0.30;;;;;;;19.15;43.92;98335.66;114279;1217;137201;-89
2021/09/20 11:55:37;;;;;;;0.20;0.20;;;;;;;18.95;43.63;98343.21;114289;1217;136963;-88
2021/09/20 11:59:03;;;;;;;0.20;0.20;;;;;;;18.95;44.13;98333.95;114275;1217;137842;-88
2021/09/20 12:02:29;;;;;;;0.20;0.20;;;;;;;19.22;43.95;98339.97;114308;1215;137306;-88
2021/09/20 12:05:58;;;;;;;0.30;0.30;;;;;;;19.49;43.67;98337.64;114468;1215;136684;-88
2021/09/20 12:09:24;;;;;;;0.20;0.20;;;;;;;19.72;42.98;98333.45;114499;1215;137079;-89
2021/09/20 12:12:50;;;;;;;0.20;0.20;;;;;;;20.02;42.53;98334.67;114441;1215;137675;-89
2021/09/20 12:16:16;;;;;;;0.30;0.30;;;;;;;20.28;41.75;98335.59;114391;1213;136663;-89
2021/09/20 12:19:41;;;;;;;0.20;0.20;;;;;;;20.51;40.94;98337.86;114350;1215;137161;-89
2021/09/20 12:23:29;;;;;;;;;;;;;;;;;;;;;